createdAt,value
2018-12-23T00:00:33.091Z,94.46
2018-12-23T00:03:01.678Z,93.78
2018-12-23T00:05:30.256Z,94.74
2018-12-23T00:07:58.865Z,95.48
2018-12-23T00:10:27.434Z,95.99
2018-12-23T00:12:55.956Z,96.93
2018-12-23T00:15:24.450Z,97.18
2018-12-23T00:17:53.018Z,97.84
2018-12-23T00:20:21.575Z,97.91
2018-12-23T00:22:50.181Z,98.14
2018-12-23T00:25:18.721Z,98.62
2018-12-23T00:27:47.314Z,98.01
2018-12-23T00:30:15.924Z,97.28
2018-12-23T00:32:44.469Z,97.06
2018-12-23T00:35:20.180Z,96.73
2018-12-23T00:37:43.659Z,97.12
2018-12-23T00:40:12.219Z,97.76
2018-12-23T00:42:40.740Z,97.91
2018-12-23T00:45:09.381Z,97.44
2018-12-23T00:47:37.952Z,97.48
2018-12-23T00:50:08.047Z,97.39
2018-12-23T00:52:36.563Z,97.35
2018-12-23T00:55:05.343Z,96.94
2018-12-23T00:57:33.884Z,96.66
2018-12-23T01:00:02.579Z,96.76
2018-12-23T01:02:31.133Z,96.69
2018-12-23T01:04:59.654Z,97.23
2018-12-23T01:07:28.160Z,96.96
2018-12-23T01:09:56.688Z,97.36
2018-12-23T01:12:25.230Z,97.33
2018-12-23T01:14:53.774Z,97.37
2018-12-23T01:17:22.361Z,96.18
2018-12-23T01:19:51.029Z,96.98
2018-12-23T01:22:19.594Z,96.83
2018-12-23T01:24:48.175Z,97.10
2018-12-23T01:27:16.778Z,97.60
2018-12-23T01:29:45.416Z,98.05
2018-12-23T01:32:13.969Z,97.64
2018-12-23T01:34:42.606Z,97.44
2018-12-23T01:37:11.204Z,96.89
2018-12-23T01:39:39.763Z,96.42
2018-12-23T01:42:08.350Z,95.42
2018-12-23T01:44:37.011Z,95.63
2018-12-23T01:47:05.571Z,96.15
2018-12-23T01:49:34.214Z,95.59
2018-12-23T01:52:02.830Z,95.48
2018-12-23T01:54:31.332Z,95.47
2018-12-23T01:56:59.934Z,95.45
2018-12-23T01:59:28.554Z,96.00
2018-12-23T02:01:57.088Z,95.93
2018-12-23T02:04:25.644Z,96.20
2018-12-23T02:06:54.231Z,95.75
2018-12-23T02:09:22.848Z,96.07
2018-12-23T02:11:51.711Z,96.43
2018-12-23T02:14:20.352Z,96.55
2018-12-23T02:16:48.928Z,96.94
2018-12-23T02:19:17.487Z,96.62
2018-12-23T02:21:46.049Z,96.85
2018-12-23T02:24:14.676Z,96.30
2018-12-23T02:26:43.268Z,96.92
2018-12-23T02:29:11.789Z,96.11
2018-12-23T02:31:40.342Z,95.75
2018-12-23T02:34:08.951Z,95.73
2018-12-23T02:36:37.577Z,95.43
2018-12-23T02:39:08.391Z,95.44
2018-12-23T02:41:37.027Z,95.40
2018-12-23T02:44:05.819Z,95.39
2018-12-23T02:46:34.430Z,95.05
2018-12-23T02:49:03.006Z,94.53
2018-12-23T02:51:31.616Z,94.40
2018-12-23T02:54:00.548Z,95.11
2018-12-23T02:56:29.117Z,95.48
2018-12-23T02:58:57.757Z,96.06
2018-12-23T03:01:26.347Z,96.37
2018-12-23T03:03:55.038Z,97.01
2018-12-23T03:06:23.585Z,97.53
2018-12-23T03:08:52.153Z,97.82
2018-12-23T03:11:20.782Z,97.84
2018-12-23T03:13:49.392Z,97.69
2018-12-23T03:16:17.987Z,97.89
2018-12-23T03:18:46.513Z,97.58
2018-12-23T03:21:15.104Z,98.00
2018-12-23T03:23:43.666Z,98.14
2018-12-23T03:26:12.285Z,98.48
2018-12-23T03:28:40.859Z,98.65
2018-12-23T03:31:09.413Z,98.56
2018-12-23T03:33:38.011Z,98.84
2018-12-23T03:36:14.728Z,98.65
2018-12-23T03:38:37.178Z,99.03
2018-12-23T03:41:06.034Z,98.98
2018-12-23T03:43:34.604Z,98.81
2018-12-23T03:46:03.176Z,97.82
2018-12-23T03:48:31.733Z,97.03
2018-12-23T03:51:00.281Z,97.35
2018-12-23T03:53:28.836Z,97.61
2018-12-23T03:55:57.323Z,97.20
2018-12-23T03:58:25.829Z,97.08
2018-12-23T04:00:54.414Z,97.34
2018-12-23T04:03:23.003Z,97.91
2018-12-23T04:05:51.589Z,97.67
2018-12-23T04:08:20.120Z,97.84
2018-12-23T04:10:48.727Z,98.23
2018-12-23T04:13:17.332Z,98.33
2018-12-23T04:15:45.919Z,97.80
2018-12-23T04:18:14.489Z,98.38
2018-12-23T04:20:43.100Z,98.36
2018-12-23T04:23:11.668Z,98.69
2018-12-23T04:25:40.192Z,98.79
2018-12-23T04:28:08.779Z,99.73
2018-12-23T04:30:37.362Z,100.00
2018-12-23T04:33:05.893Z,99.87
2018-12-23T04:35:34.467Z,100.00
2018-12-23T04:38:03.043Z,100.00
2018-12-23T04:43:06.302Z,100.00
2018-12-23T04:45:34.856Z,100.00
2018-12-23T04:48:03.503Z,100.00
2018-12-23T04:50:32.093Z,100.00
2018-12-23T04:53:00.681Z,100.00
2018-12-23T04:55:29.234Z,100.00
2018-12-23T04:57:57.800Z,100.00
2018-12-23T05:00:26.388Z,100.00
2018-12-23T05:02:55.021Z,100.00
2018-12-23T05:05:23.668Z,100.00
2018-12-23T05:07:52.237Z,99.67
2018-12-23T05:10:20.790Z,99.98
2018-12-23T05:12:49.645Z,100.00
2018-12-23T05:15:18.213Z,99.82
2018-12-23T05:17:46.773Z,98.84
2018-12-23T05:20:15.329Z,99.55
2018-12-23T05:22:43.936Z,100.00
2018-12-23T05:25:12.490Z,100.00
2018-12-23T05:27:41.085Z,100.00
2018-12-23T05:30:09.643Z,100.00
2018-12-23T05:32:38.163Z,100.00
2018-12-23T05:35:06.739Z,99.71
2018-12-23T05:37:35.283Z,100.00
2018-12-23T05:40:03.985Z,100.00
2018-12-23T05:42:32.507Z,100.00
2018-12-23T05:45:01.074Z,99.47
2018-12-23T05:47:29.692Z,99.77
2018-12-23T05:49:58.367Z,100.00
2018-12-23T05:52:27.008Z,100.00
2018-12-23T05:54:55.556Z,100.00
2018-12-23T05:57:24.120Z,100.00
2018-12-23T05:59:52.946Z,100.00
2018-12-23T06:02:21.537Z,100.00
2018-12-23T06:04:50.124Z,100.00
2018-12-23T06:07:18.683Z,100.00
2018-12-23T06:09:47.265Z,100.00
2018-12-23T06:12:15.808Z,100.00
2018-12-23T06:14:44.385Z,100.00
2018-12-23T06:17:12.958Z,100.00
2018-12-23T06:19:41.574Z,100.00
2018-12-23T06:22:10.110Z,100.00
2018-12-23T06:24:39.007Z,100.00
2018-12-23T06:27:07.620Z,99.83
2018-12-23T06:29:36.164Z,99.25
2018-12-23T06:32:04.875Z,98.80
2018-12-23T06:34:33.583Z,98.45
2018-12-23T06:37:09.715Z,97.65
2018-12-23T06:39:32.793Z,96.78
2018-12-23T06:42:01.368Z,96.63
2018-12-23T06:44:29.877Z,96.57
2018-12-23T06:47:05.206Z,96.31
2018-12-23T06:49:33.769Z,95.03
2018-12-23T06:52:02.287Z,95.77
2018-12-23T06:54:30.847Z,95.48
2018-12-23T06:56:59.466Z,95.12
2018-12-23T06:59:28.045Z,94.07
2018-12-23T07:01:56.615Z,93.33
2018-12-23T07:04:25.298Z,92.88
2018-12-23T07:06:53.918Z,92.81
2018-12-23T07:09:22.446Z,92.42
2018-12-23T07:11:51.032Z,91.53
2018-12-23T07:14:19.707Z,91.27
2018-12-23T07:16:48.282Z,90.33
2018-12-23T07:19:16.877Z,89.71
2018-12-23T07:21:45.427Z,89.80
2018-12-23T07:24:14.002Z,89.86
2018-12-23T07:26:43.659Z,89.73
2018-12-23T07:29:12.432Z,88.82
2018-12-23T07:31:40.957Z,87.49
2018-12-23T07:34:09.508Z,87.14
2018-12-23T07:36:38.157Z,86.39
2018-12-23T07:39:07.094Z,86.10
2018-12-23T07:41:35.724Z,86.08
2018-12-23T07:44:04.297Z,86.27
2018-12-23T07:46:32.885Z,86.28
2018-12-23T07:49:01.392Z,84.87
2018-12-23T07:51:29.936Z,81.69
2018-12-23T07:53:58.546Z,78.16
2018-12-23T07:56:27.072Z,77.45
2018-12-23T07:58:55.704Z,75.67
2018-12-23T08:01:24.242Z,74.32
2018-12-23T08:03:53.019Z,74.21
2018-12-23T08:06:21.707Z,71.75
2018-12-23T08:08:50.241Z,70.23
2018-12-23T08:11:18.827Z,70.26
2018-12-23T08:13:47.425Z,67.99
2018-12-23T08:16:16.005Z,67.02
2018-12-23T08:18:44.552Z,65.07
2018-12-23T08:21:13.082Z,63.22
2018-12-23T08:23:41.855Z,62.95
2018-12-23T08:26:10.395Z,63.39
2018-12-23T08:28:39.001Z,64.42
2018-12-23T08:31:07.573Z,65.07
2018-12-23T08:33:36.097Z,65.16
2018-12-23T08:36:04.824Z,64.84
2018-12-23T08:38:33.379Z,63.25
2018-12-23T08:41:01.980Z,61.01
2018-12-23T08:43:30.542Z,60.37
2018-12-23T08:45:59.172Z,62.60
2018-12-23T08:48:27.678Z,63.26
2018-12-23T08:50:56.211Z,62.81
2018-12-23T08:53:24.718Z,62.41
2018-12-23T08:55:53.280Z,62.17
2018-12-23T08:58:21.829Z,62.57
2018-12-23T09:00:50.600Z,62.92
2018-12-23T09:03:19.541Z,60.59
2018-12-23T09:05:48.159Z,59.82
2018-12-23T09:08:16.668Z,59.57
2018-12-23T09:10:45.258Z,57.98
2018-12-23T09:13:13.814Z,60.84
2018-12-23T09:15:42.429Z,61.64
2018-12-23T09:18:19.127Z,61.86
2018-12-23T09:20:41.647Z,62.01
2018-12-23T09:23:10.570Z,62.38
2018-12-23T09:25:39.323Z,62.27
2018-12-23T09:28:08.953Z,62.53
2018-12-23T09:30:37.726Z,63.20
2018-12-23T09:33:06.288Z,62.42
2018-12-23T09:35:35.176Z,62.16
2018-12-23T09:38:03.724Z,62.37
2018-12-23T09:40:32.340Z,63.81
2018-12-23T09:43:00.829Z,63.72
2018-12-23T09:45:29.561Z,64.27
2018-12-23T09:47:58.065Z,65.67
2018-12-23T09:50:26.649Z,64.02
2018-12-23T09:52:55.222Z,63.12
2018-12-23T09:55:23.857Z,61.24
2018-12-23T09:57:52.434Z,62.69
2018-12-23T10:00:21.134Z,61.01
2018-12-23T10:02:49.683Z,60.18
2018-12-23T10:05:18.215Z,60.34
2018-12-23T10:07:46.765Z,60.75
2018-12-23T10:10:16.208Z,60.79
2018-12-23T10:12:44.757Z,60.93
2018-12-23T10:15:13.306Z,61.87
2018-12-23T10:17:41.841Z,62.52
2018-12-23T10:20:10.382Z,64.43
2018-12-23T10:22:38.946Z,64.11
2018-12-23T10:25:07.542Z,64.85
2018-12-23T10:27:36.101Z,67.73
2018-12-23T10:30:12.295Z,68.42
2018-12-23T10:32:40.918Z,70.02
2018-12-23T10:35:09.445Z,71.52
2018-12-23T10:37:38.105Z,71.41
2018-12-23T10:40:07.038Z,71.12
2018-12-23T10:42:35.586Z,70.80
2018-12-23T10:45:04.320Z,68.95
2018-12-23T10:47:32.974Z,68.25
2018-12-23T10:50:01.487Z,66.98
2018-12-23T10:52:30.033Z,65.11
2018-12-23T10:54:58.555Z,64.69
2018-12-23T10:57:27.289Z,65.00
2018-12-23T10:59:55.851Z,64.84
2018-12-23T11:02:24.495Z,64.43
2018-12-23T11:04:53.018Z,65.07
2018-12-23T11:07:21.538Z,64.32
2018-12-23T11:09:50.139Z,65.23
2018-12-23T11:12:18.731Z,65.59
2018-12-23T11:14:47.301Z,66.88
2018-12-23T11:17:15.835Z,66.17
2018-12-23T11:19:44.411Z,66.09
2018-12-23T11:22:13.010Z,64.49
2018-12-23T11:24:41.561Z,64.90
2018-12-23T11:27:10.180Z,64.80
2018-12-23T11:29:38.768Z,65.18
2018-12-23T11:32:07.409Z,64.50
2018-12-23T11:34:36.318Z,63.29
2018-12-23T11:37:04.884Z,63.51
2018-12-23T11:39:33.402Z,63.37
2018-12-23T11:42:02.089Z,62.35
2018-12-23T11:44:30.692Z,61.64
2018-12-23T11:46:59.235Z,62.02
2018-12-23T11:49:27.934Z,61.32
2018-12-23T11:51:56.448Z,60.19
2018-12-23T11:54:25.077Z,58.50
2018-12-23T11:56:53.791Z,58.55
2018-12-23T11:59:22.395Z,59.91
2018-12-23T12:01:51.079Z,61.40
2018-12-23T12:04:19.675Z,61.19
2018-12-23T12:06:48.235Z,59.54
2018-12-23T12:09:16.776Z,58.61
2018-12-23T12:11:45.337Z,58.12
2018-12-23T12:14:13.873Z,55.91
2018-12-23T12:16:42.482Z,56.25
2018-12-23T12:19:11.043Z,57.38
2018-12-23T12:21:39.596Z,57.87
2018-12-23T12:24:08.171Z,56.96
2018-12-23T12:26:36.767Z,57.78
2018-12-23T12:29:05.302Z,57.33
2018-12-23T12:31:33.848Z,58.05
2018-12-23T12:34:02.418Z,58.13
2018-12-23T12:36:31.046Z,59.19
2018-12-23T12:39:01.658Z,58.89
2018-12-23T12:41:30.193Z,57.20
2018-12-23T12:43:58.815Z,56.25
2018-12-23T12:46:27.383Z,57.13
2018-12-23T12:48:55.953Z,58.02
2018-12-23T12:51:24.430Z,59.66
2018-12-23T12:53:52.944Z,60.66
2018-12-23T12:56:21.491Z,60.65
2018-12-23T12:58:50.071Z,61.04
2018-12-23T13:01:18.684Z,61.24
2018-12-23T13:03:47.165Z,62.53
2018-12-23T13:06:15.729Z,62.61
2018-12-23T13:08:44.327Z,63.57
2018-12-23T13:11:13.145Z,63.68
2018-12-23T13:13:41.650Z,64.50
2018-12-23T13:16:10.191Z,64.56
2018-12-23T13:18:38.822Z,64.65
2018-12-23T13:21:07.343Z,65.20
2018-12-23T13:23:35.929Z,65.48
2018-12-23T13:26:04.478Z,65.97
2018-12-23T13:28:33.026Z,66.55
2018-12-23T13:31:01.596Z,67.82
2018-12-23T13:33:30.202Z,67.65
2018-12-23T13:35:58.728Z,68.01
2018-12-23T13:38:27.270Z,67.48
2018-12-23T13:41:21.260Z,67.49
2018-12-23T13:44:19.814Z,66.83
2018-12-23T13:47:15.480Z,67.36
2018-12-23T13:51:57.599Z,66.59
2018-12-23T13:56:42.756Z,66.09
2018-12-23T13:59:23.279Z,66.67
2018-12-23T14:02:01.735Z,66.74
2018-12-23T14:04:40.306Z,67.31
2018-12-23T14:07:58.270Z,67.27
2018-12-23T14:11:22.809Z,67.76
2018-12-23T14:13:51.355Z,67.77
2018-12-23T14:16:19.918Z,68.21
2018-12-23T14:18:48.559Z,68.13
2018-12-23T14:21:17.170Z,67.99
2018-12-23T14:23:45.797Z,68.88
2018-12-23T14:26:14.324Z,68.19
2018-12-23T14:28:42.857Z,68.11
2018-12-23T14:31:11.365Z,68.28
2018-12-23T14:33:39.881Z,68.42
2018-12-23T14:36:08.445Z,68.25
2018-12-23T14:38:37.059Z,68.75
2018-12-23T14:41:05.770Z,68.38
2018-12-23T14:43:34.304Z,68.73
2018-12-23T14:46:02.883Z,68.56
2018-12-23T14:48:31.381Z,68.54
2018-12-23T14:51:00.023Z,68.74
2018-12-23T14:53:28.538Z,68.59
2018-12-23T14:55:57.069Z,68.54
2018-12-23T14:58:25.605Z,69.44
2018-12-23T15:00:54.177Z,69.00
2018-12-23T15:03:22.729Z,69.17
2018-12-23T15:05:51.317Z,69.44
2018-12-23T15:08:19.852Z,69.34
2018-12-23T15:10:48.398Z,69.29
2018-12-23T15:13:17.966Z,69.45
2018-12-23T15:15:46.721Z,69.85
2018-12-23T15:18:15.285Z,70.17
2018-12-23T15:20:43.927Z,69.97
2018-12-23T15:23:12.517Z,70.16
2018-12-23T15:25:41.015Z,70.27
2018-12-23T15:28:09.537Z,70.13
2018-12-23T15:30:38.215Z,70.23
2018-12-23T15:33:06.795Z,70.86
2018-12-23T15:35:37.906Z,70.50
2018-12-23T15:38:06.591Z,71.64
2018-12-23T15:40:35.144Z,71.58
2018-12-23T15:43:03.864Z,71.83
2018-12-23T15:45:32.401Z,72.22
2018-12-23T15:48:00.940Z,72.49
2018-12-23T15:50:29.466Z,72.88
2018-12-23T15:52:58.194Z,73.20
2018-12-23T15:55:26.783Z,73.56
2018-12-23T15:57:55.324Z,74.06
2018-12-23T16:00:23.878Z,74.53
2018-12-23T16:02:52.359Z,75.31
2018-12-23T16:05:20.899Z,75.42
2018-12-23T16:07:49.492Z,75.92
2018-12-23T16:10:18.101Z,75.72
2018-12-23T16:12:46.650Z,75.94
2018-12-23T16:15:15.174Z,75.81
2018-12-23T16:17:43.709Z,76.23
2018-12-23T16:20:13.656Z,76.09
2018-12-23T16:22:42.238Z,76.22
2018-12-23T16:25:10.832Z,75.44
2018-12-23T16:27:39.324Z,74.94
2018-12-23T16:30:10.523Z,74.53
2018-12-23T16:32:39.099Z,74.72
2018-12-23T16:35:07.632Z,74.78
2018-12-23T16:37:36.179Z,74.83
2018-12-23T16:40:06.327Z,74.65
2018-12-23T16:42:34.883Z,74.69
2018-12-23T16:45:03.443Z,74.83
2018-12-23T16:47:31.966Z,75.01
2018-12-23T16:50:00.445Z,75.22
2018-12-23T16:52:29.329Z,75.59
2018-12-23T16:54:57.907Z,75.19
2018-12-23T16:57:26.427Z,75.48
2018-12-23T16:59:54.987Z,75.75
2018-12-23T17:02:23.573Z,75.44
2018-12-23T17:04:52.083Z,74.76
2018-12-23T17:07:20.666Z,74.36
2018-12-23T17:09:49.218Z,74.19
2018-12-23T17:12:17.790Z,73.89
2018-12-23T17:14:46.342Z,73.41
2018-12-23T17:17:14.829Z,73.22
2018-12-23T17:19:43.376Z,72.79
2018-12-23T17:22:11.876Z,72.62
2018-12-23T17:24:40.478Z,72.54
2018-12-23T17:27:09.032Z,71.95
2018-12-23T17:29:37.609Z,72.07
2018-12-23T17:32:06.281Z,72.09
2018-12-23T17:34:34.821Z,71.98
2018-12-23T17:37:03.373Z,71.92
2018-12-23T17:39:31.949Z,71.69
2018-12-23T17:42:00.528Z,71.21
2018-12-23T17:44:29.208Z,71.24
2018-12-23T17:46:57.718Z,70.86
2018-12-23T17:49:26.228Z,71.04
2018-12-23T17:51:54.767Z,71.25
2018-12-23T17:54:23.253Z,71.38
2018-12-23T17:56:51.749Z,71.25
2018-12-23T17:59:20.307Z,71.22
2018-12-23T18:01:48.858Z,71.34
2018-12-23T18:04:17.455Z,71.37
2018-12-23T18:06:45.993Z,71.06
2018-12-23T18:09:14.571Z,71.42
2018-12-23T18:11:43.283Z,71.60
2018-12-23T18:14:12.051Z,71.38
2018-12-23T18:16:40.741Z,72.06
2018-12-23T18:19:09.308Z,71.40
2018-12-23T18:21:38.060Z,71.87
2018-12-23T18:24:06.674Z,71.46
2018-12-23T18:26:35.400Z,71.57
2018-12-23T18:29:03.951Z,71.58
2018-12-23T18:31:32.540Z,71.51
2018-12-23T18:34:01.110Z,71.41
2018-12-23T18:36:29.752Z,71.36
2018-12-23T18:38:58.376Z,71.47
2018-12-23T18:41:26.920Z,71.75
2018-12-23T18:43:55.481Z,71.87
2018-12-23T18:46:24.061Z,72.02
2018-12-23T18:48:52.582Z,72.03
2018-12-23T18:51:21.098Z,72.49
2018-12-23T18:53:49.673Z,72.40
2018-12-23T18:56:19.419Z,73.98
2018-12-23T18:58:47.934Z,76.44
2018-12-23T19:01:17.346Z,78.22
2018-12-23T19:03:45.849Z,79.55
2018-12-23T19:06:14.404Z,80.62
2018-12-23T19:08:59.465Z,81.01
2018-12-23T19:11:36.126Z,81.68
2018-12-23T19:14:16.372Z,82.34
2018-12-23T19:17:53.746Z,82.21
2018-12-23T19:20:50.835Z,82.70
2018-12-23T19:23:41.965Z,82.87
2018-12-23T19:27:21.637Z,83.35
2018-12-23T19:30:20.568Z,84.20
2018-12-23T19:34:14.446Z,84.35
2018-12-23T19:37:09.443Z,84.74
2018-12-23T19:40:14.230Z,85.26
2018-12-23T19:43:04.917Z,85.26
2018-12-23T19:45:59.459Z,85.18
2018-12-23T19:49:04.419Z,84.90
2018-12-23T19:52:23.996Z,85.41
2018-12-23T19:55:17.766Z,85.57
2018-12-23T19:58:26.994Z,85.57
2018-12-23T20:02:01.715Z,85.95
2018-12-23T20:05:26.315Z,86.13
2018-12-23T20:08:51.962Z,86.13
2018-12-23T20:12:06.857Z,87.08
2018-12-23T20:15:23.306Z,88.24
2018-12-23T20:18:42.944Z,88.29
2018-12-23T20:21:50.512Z,88.46
2018-12-23T20:25:06.821Z,88.50
2018-12-23T20:28:00.592Z,88.46
2018-12-23T20:31:05.427Z,88.61
2018-12-23T20:34:15.877Z,88.61
2018-12-23T20:37:47.647Z,88.41
2018-12-23T20:41:07.626Z,88.38
2018-12-23T20:44:07.035Z,88.86
2018-12-23T20:47:04.779Z,88.32
2018-12-23T20:50:30.264Z,87.84
2018-12-23T20:53:35.294Z,88.22
2018-12-23T20:56:55.235Z,87.54
2018-12-23T21:00:14.657Z,87.51
2018-12-23T21:02:58.852Z,88.03
2018-12-23T21:06:01.560Z,87.77
2018-12-23T21:09:09.835Z,87.62
2018-12-23T21:12:16.781Z,87.16
2018-12-23T21:15:26.592Z,87.31
2018-12-23T21:18:23.902Z,87.97
2018-12-23T21:21:31.885Z,87.82
2018-12-23T21:24:37.163Z,88.16
2018-12-23T21:27:36.978Z,88.07
2018-12-23T21:30:31.985Z,87.57
2018-12-23T21:33:39.897Z,87.37
2018-12-23T21:36:41.375Z,87.45
2018-12-23T21:40:09.706Z,87.67
2018-12-23T21:43:05.295Z,87.99
2018-12-23T21:45:56.879Z,88.33
2018-12-23T21:49:16.361Z,89.10
2018-12-23T21:52:26.033Z,89.41
2018-12-23T21:55:38.301Z,90.06
2018-12-23T21:58:47.256Z,90.07
2018-12-23T22:02:05.427Z,89.92
2018-12-23T22:05:24.839Z,89.93
2018-12-23T22:08:34.480Z,89.59
2018-12-23T22:11:35.539Z,89.42
2018-12-23T22:14:06.624Z,89.11
2018-12-23T22:16:36.269Z,88.65
2018-12-23T22:19:05.720Z,88.56
2018-12-23T22:21:35.571Z,88.82
2018-12-23T22:24:06.307Z,88.94
2018-12-23T22:26:35.808Z,88.95
2018-12-23T22:29:05.463Z,89.68
2018-12-23T22:31:36.110Z,90.34
2018-12-23T22:34:05.909Z,90.05
2018-12-23T22:36:35.260Z,89.79
2018-12-23T22:39:06.625Z,89.59
2018-12-23T22:41:41.467Z,89.37
2018-12-23T22:44:09.055Z,89.24
2018-12-23T22:46:38.491Z,89.07
2018-12-23T22:49:07.930Z,89.40
2018-12-23T22:51:37.617Z,89.92
2018-12-23T22:54:08.361Z,89.86
2018-12-23T22:56:37.759Z,90.41
2018-12-23T22:59:10.239Z,90.86
2018-12-23T23:01:40.281Z,90.04
2018-12-23T23:04:09.695Z,89.49
2018-12-23T23:06:39.287Z,89.33
2018-12-23T23:09:10.331Z,89.62
2018-12-23T23:11:39.811Z,89.62
2018-12-23T23:14:10.048Z,89.69
2018-12-23T23:16:40.366Z,89.90
2018-12-23T23:19:16.837Z,89.79
2018-12-23T23:21:46.415Z,89.82
2018-12-23T23:24:16.092Z,89.38
2018-12-23T23:26:46.451Z,88.98
2018-12-23T23:29:16.063Z,89.37
2018-12-23T23:31:54.010Z,89.15
2018-12-23T23:34:23.602Z,89.23
2018-12-23T23:36:53.057Z,89.61
2018-12-23T23:39:25.690Z,89.64
2018-12-23T23:41:58.470Z,89.82
2018-12-23T23:44:27.979Z,89.74
2018-12-23T23:46:57.696Z,89.63
2018-12-23T23:49:27.187Z,89.51
2018-12-23T23:51:56.676Z,89.60
2018-12-23T23:54:26.223Z,89.84
2018-12-23T23:56:55.684Z,89.94
2018-12-23T23:59:25.317Z,89.59
